createdAt,value
2022-10-26T00:01:44.873Z,101240.41
2022-10-26T00:04:13.986Z,101236.13
2022-10-26T00:06:42.638Z,101242.25
2022-10-26T00:09:11.778Z,101248.03
2022-10-26T00:11:40.676Z,101228.84
2022-10-26T00:14:09.270Z,101228.34
2022-10-26T00:16:39.389Z,101224.00
2022-10-26T00:19:08.136Z,101223.00
2022-10-26T00:21:36.833Z,101206.28
2022-10-26T00:24:05.751Z,101213.84
2022-10-26T00:26:34.472Z,101211.56
2022-10-26T00:29:06.116Z,101216.66
2022-10-26T00:31:35.315Z,101207.53
2022-10-26T00:34:05.524Z,101201.13
2022-10-26T00:36:34.667Z,101198.59
2022-10-26T00:39:03.603Z,101194.38
2022-10-26T00:41:35.186Z,101192.13
2022-10-26T00:44:56.638Z,101186.28
2022-10-26T00:51:59.778Z,101188.88
2022-10-26T00:54:28.846Z,101187.19
2022-10-26T00:57:00.333Z,101083.72
2022-10-26T00:59:29.668Z,101194.91
2022-10-26T01:01:58.874Z,101112.38
2022-10-26T01:04:28.391Z,101117.59
2022-10-26T01:06:57.408Z,100949.63
2022-10-26T01:09:28.369Z,100934.09
2022-10-26T01:11:57.134Z,100954.97
2022-10-26T01:14:28.741Z,101140.69
2022-10-26T01:17:05.970Z,101166.56
2022-10-26T01:20:05.397Z,100877.75
2022-10-26T01:22:38.141Z,101112.78
2022-10-26T01:25:24.739Z,101165.97
2022-10-26T01:27:55.449Z,100811.03
2022-10-26T01:30:32.775Z,101131.03
2022-10-26T01:33:31.427Z,101137.28
2022-10-26T01:36:07.713Z,101091.91
2022-10-26T01:38:44.633Z,101141.94
2022-10-26T01:41:18.197Z,101148.56
2022-10-26T01:43:52.687Z,101149.00
2022-10-26T01:46:25.115Z,100908.09
2022-10-26T01:48:59.042Z,100771.09
2022-10-26T01:51:30.039Z,101150.19
2022-10-26T01:54:00.049Z,101086.84
2022-10-26T01:56:32.311Z,101048.84
2022-10-26T01:59:26.894Z,101137.44
2022-10-26T02:02:31.246Z,101089.41
2022-10-26T02:05:16.522Z,101127.72
2022-10-26T02:07:54.100Z,101091.75
2022-10-26T02:10:32.541Z,101115.56
2022-10-26T02:13:07.620Z,101128.56
2022-10-26T02:15:47.546Z,101162.38
2022-10-26T02:18:30.574Z,101122.56
2022-10-26T02:21:05.125Z,100750.00
2022-10-26T02:23:38.609Z,101070.38
2022-10-26T02:26:13.184Z,101085.44
2022-10-26T02:28:45.762Z,101046.78
2022-10-26T02:31:16.891Z,101019.69
2022-10-26T02:33:51.110Z,101032.72
2022-10-26T02:36:27.988Z,101083.50
2022-10-26T02:38:59.056Z,101094.88
2022-10-26T02:41:30.221Z,101099.13
2022-10-26T02:44:06.391Z,101049.34
2022-10-26T02:46:35.707Z,100800.59
2022-10-26T02:49:08.963Z,101039.47
2022-10-26T02:51:42.000Z,101095.59
2022-10-26T02:54:17.634Z,100881.75
2022-10-26T02:56:52.843Z,100852.28
2022-10-26T02:59:24.571Z,101011.19
2022-10-26T03:01:56.908Z,101098.19
2022-10-26T03:04:32.009Z,101094.44
2022-10-26T03:07:03.180Z,101068.97
2022-10-26T03:09:32.763Z,101016.59
2022-10-26T03:12:01.819Z,101028.66
2022-10-26T03:14:30.536Z,100997.44
2022-10-26T03:17:03.646Z,101088.53
2022-10-26T03:19:33.938Z,100754.56
2022-10-26T03:22:03.207Z,100946.06
2022-10-26T03:24:32.042Z,101082.63
2022-10-26T03:27:02.281Z,101009.88
2022-10-26T03:29:31.881Z,101029.34
2022-10-26T03:32:00.997Z,101014.25
2022-10-26T03:34:30.211Z,101085.81
2022-10-26T03:37:00.999Z,101018.75
2022-10-26T03:39:32.255Z,101000.19
2022-10-26T03:42:01.061Z,101075.41
2022-10-26T03:44:32.111Z,101077.66
2022-10-26T03:47:03.821Z,101075.75
2022-10-26T03:49:32.623Z,101071.13
2022-10-26T03:52:03.600Z,101074.34
2022-10-26T03:54:32.364Z,100899.22
2022-10-26T03:57:03.335Z,101070.81
2022-10-26T03:59:32.666Z,101066.75
2022-10-26T04:02:04.035Z,101063.06
2022-10-26T04:04:50.084Z,101065.84
2022-10-26T04:07:20.870Z,101074.78
2022-10-26T04:09:56.785Z,101056.94
2022-10-26T04:12:38.140Z,101047.47
2022-10-26T04:15:10.248Z,101063.66
2022-10-26T04:17:39.226Z,101021.63
2022-10-26T04:20:09.576Z,101056.81
2022-10-26T04:22:42.648Z,101030.28
2022-10-26T04:25:13.690Z,101057.75
2022-10-26T04:27:42.499Z,101066.84
2022-10-26T04:30:15.103Z,101059.59
2022-10-26T04:32:45.456Z,101052.78
2022-10-26T04:35:15.544Z,101061.06
2022-10-26T04:37:46.221Z,101063.28
2022-10-26T04:40:15.453Z,101007.72
2022-10-26T04:42:44.709Z,101061.56
2022-10-26T04:45:15.208Z,101062.53
2022-10-26T04:47:44.678Z,100768.75
2022-10-26T04:50:14.628Z,101065.69
2022-10-26T04:52:43.473Z,101061.16
2022-10-26T04:55:16.166Z,101031.38
2022-10-26T04:57:47.454Z,101058.69
2022-10-26T05:00:17.043Z,101068.66
2022-10-26T05:02:46.350Z,101056.25
2022-10-26T05:05:15.704Z,101057.91
2022-10-26T05:07:44.662Z,101056.78
2022-10-26T05:10:13.879Z,100955.84
2022-10-26T05:12:44.411Z,101058.84
2022-10-26T05:15:15.205Z,100830.00
2022-10-26T05:17:43.847Z,101057.63
2022-10-26T05:20:16.297Z,101022.06
2022-10-26T05:22:46.312Z,101062.44
2022-10-26T05:25:15.266Z,101066.53
2022-10-26T05:27:46.046Z,101061.63
2022-10-26T05:30:41.144Z,101045.97
2022-10-26T05:33:07.745Z,101083.47
2022-10-26T05:35:36.522Z,101053.78
2022-10-26T05:38:11.464Z,101018.22
2022-10-26T05:40:49.133Z,101045.19
2022-10-26T05:43:20.590Z,101056.38
2022-10-26T05:45:51.526Z,100778.22
2022-10-26T05:48:23.211Z,101088.41
2022-10-26T05:50:52.451Z,101062.91
2022-10-26T05:53:21.498Z,100845.72
2022-10-26T05:55:51.169Z,101012.25
2022-10-26T05:58:22.480Z,101048.25
2022-10-26T06:01:07.908Z,100909.63
2022-10-26T06:03:52.616Z,101050.00
2022-10-26T06:06:24.326Z,100955.81
2022-10-26T06:08:54.297Z,101058.22
2022-10-26T06:11:23.607Z,101055.31
2022-10-26T06:14:00.438Z,101049.25
2022-10-26T06:16:41.131Z,101038.50
2022-10-26T06:19:25.006Z,100888.69
2022-10-26T06:22:07.670Z,101057.31
2022-10-26T06:24:43.568Z,100751.97
2022-10-26T06:27:23.703Z,100780.66
2022-10-26T06:30:00.931Z,101057.47
2022-10-26T06:32:31.107Z,101015.56
2022-10-26T06:35:16.265Z,101064.66
2022-10-26T06:37:46.934Z,101059.44
2022-10-26T06:40:20.168Z,101066.00
2022-10-26T06:42:49.528Z,101065.03
2022-10-26T06:45:24.423Z,100601.84
2022-10-26T06:47:59.149Z,101064.75
2022-10-26T06:50:34.470Z,101063.66
2022-10-26T06:53:16.775Z,100889.25
2022-10-26T06:55:49.804Z,101066.28
2022-10-26T06:58:20.598Z,101070.94
2022-10-26T07:00:53.663Z,100992.84
2022-10-26T07:03:22.571Z,100999.97
2022-10-26T07:05:55.741Z,101084.13
2022-10-26T07:08:24.585Z,100723.88
2022-10-26T07:10:53.684Z,101023.44
2022-10-26T07:13:23.138Z,101089.25
2022-10-26T07:15:53.663Z,101050.03
2022-10-26T07:18:22.566Z,101030.31
2022-10-26T07:20:53.756Z,101041.56
2022-10-26T07:23:23.789Z,101130.22
2022-10-26T07:25:53.014Z,101121.88
2022-10-26T07:28:21.815Z,101088.41
2022-10-26T07:30:55.275Z,100861.69
2022-10-26T07:33:27.156Z,101108.66
2022-10-26T07:35:56.209Z,101111.22
2022-10-26T07:38:25.155Z,100843.53
2022-10-26T07:40:54.433Z,100924.03
2022-10-26T07:43:23.773Z,101089.91
2022-10-26T07:45:52.949Z,101119.75
2022-10-26T07:48:21.833Z,101118.03
2022-10-26T07:50:52.351Z,100974.00
2022-10-26T07:53:26.768Z,101133.91
2022-10-26T07:55:57.109Z,101051.47
2022-10-26T07:58:27.387Z,101139.97
2022-10-26T08:00:57.408Z,101109.47
2022-10-26T08:03:26.592Z,100812.78
2022-10-26T08:05:56.760Z,101146.09
2022-10-26T08:08:25.839Z,101065.13
2022-10-26T08:10:55.094Z,101072.47
2022-10-26T08:13:23.959Z,101010.16
2022-10-26T08:15:58.262Z,101119.75
2022-10-26T08:18:29.568Z,101156.84
2022-10-26T08:21:10.987Z,101171.22
2022-10-26T08:23:40.992Z,100879.47
2022-10-26T08:26:11.469Z,101100.41
2022-10-26T08:28:42.736Z,101158.47
2022-10-26T08:31:11.570Z,101151.03
2022-10-26T08:33:44.785Z,100974.28
2022-10-26T08:36:20.304Z,101101.16
2022-10-26T08:38:49.674Z,101106.81
2022-10-26T08:41:27.557Z,101148.03
2022-10-26T08:44:00.119Z,101147.50
2022-10-26T08:46:36.268Z,101157.88
2022-10-26T08:49:24.564Z,101087.66
2022-10-26T08:51:59.175Z,101144.84
2022-10-26T08:54:37.083Z,101159.00
2022-10-26T08:57:16.142Z,101139.88
2022-10-26T08:59:54.556Z,101161.25
2022-10-26T09:02:24.951Z,101202.91
2022-10-26T09:04:54.880Z,101026.97
2022-10-26T09:07:41.445Z,101163.16
2022-10-26T09:10:23.467Z,101167.75
2022-10-26T09:13:00.224Z,101169.91
2022-10-26T09:15:39.738Z,101137.00
2022-10-26T09:18:22.164Z,101160.19
2022-10-26T09:21:05.845Z,101178.50
2022-10-26T09:23:51.671Z,101189.56
2022-10-26T09:26:31.832Z,100876.97
2022-10-26T09:29:04.899Z,101087.09
2022-10-26T09:31:43.131Z,101141.41
2022-10-26T09:34:23.396Z,100905.66
2022-10-26T09:36:55.662Z,101196.84
2022-10-26T09:39:37.597Z,101148.31
2022-10-26T09:42:17.580Z,101205.84
2022-10-26T09:44:55.323Z,101143.00
2022-10-26T09:47:33.796Z,101170.78
2022-10-26T09:50:18.345Z,101230.44
2022-10-26T09:52:47.590Z,100991.06
2022-10-26T09:55:18.183Z,101208.53
2022-10-26T09:57:48.830Z,101213.53
2022-10-26T10:00:19.970Z,101093.88
2022-10-26T10:02:52.843Z,101222.81
2022-10-26T10:05:51.415Z,101233.34
2022-10-26T10:08:23.486Z,101234.38
2022-10-26T10:11:10.214Z,101213.44
2022-10-26T10:13:41.483Z,101217.38
2022-10-26T10:16:14.474Z,101246.47
2022-10-26T10:18:44.108Z,101266.25
2022-10-26T10:21:14.325Z,101098.94
2022-10-26T10:23:52.465Z,101168.97
2022-10-26T10:26:25.458Z,101259.66
2022-10-26T10:28:59.582Z,101272.47
2022-10-26T10:31:30.214Z,101286.16
2022-10-26T10:33:59.908Z,101137.13
2022-10-26T10:36:31.002Z,101292.47
2022-10-26T10:39:01.072Z,100972.25
2022-10-26T10:41:36.736Z,101293.94
2022-10-26T10:44:09.697Z,101042.06
2022-10-26T10:46:39.009Z,101301.50
2022-10-26T10:49:19.888Z,101305.72
2022-10-26T10:51:51.334Z,101361.00
2022-10-26T10:54:26.787Z,101306.75
2022-10-26T10:57:04.420Z,101271.25
2022-10-26T10:59:42.973Z,101309.84
2022-10-26T11:02:49.575Z,101316.97
2022-10-26T11:05:27.413Z,101330.03
2022-10-26T11:08:03.216Z,101324.63
2022-10-26T11:10:36.537Z,101268.06
2022-10-26T11:13:15.324Z,101167.16
2022-10-26T11:15:47.975Z,101300.56
2022-10-26T11:18:21.118Z,101125.63
2022-10-26T11:23:37.723Z,101347.53
2022-10-26T11:26:13.940Z,101212.72
2022-10-26T11:28:52.408Z,101336.28
2022-10-26T11:31:27.433Z,101213.34
2022-10-26T11:34:13.753Z,101288.06
2022-10-26T11:36:45.140Z,101061.38
2022-10-26T11:39:23.536Z,101348.59
2022-10-26T11:42:02.409Z,101347.56
2022-10-26T11:44:39.553Z,101362.00
2022-10-26T11:47:15.674Z,101344.00
2022-10-26T11:49:52.023Z,101339.44
2022-10-26T11:52:25.422Z,101284.28
2022-10-26T11:54:57.142Z,101332.19
2022-10-26T11:57:29.080Z,101349.69
2022-10-26T12:00:03.326Z,101307.13
2022-10-26T12:05:22.144Z,101360.38
2022-10-26T12:07:54.703Z,101355.56
2022-10-26T12:10:28.453Z,100977.53
2022-10-26T12:13:05.815Z,101335.28
2022-10-26T12:16:02.284Z,101347.44
2022-10-26T12:18:55.068Z,101362.13
2022-10-26T12:21:29.190Z,101328.94
2022-10-26T12:23:59.283Z,101358.34
2022-10-26T12:26:51.836Z,101363.63
2022-10-26T12:29:42.881Z,101363.22
2022-10-26T12:32:43.785Z,101371.84
2022-10-26T12:35:42.780Z,101359.88
2022-10-26T12:38:51.347Z,101364.78
2022-10-26T12:41:25.529Z,101370.09
2022-10-26T12:43:59.025Z,101288.13
2022-10-26T12:46:40.598Z,101366.72
2022-10-26T12:49:57.722Z,101370.16
2022-10-26T12:52:44.361Z,101378.84
2022-10-26T12:55:52.381Z,101399.97
2022-10-26T12:58:37.761Z,101396.34
2022-10-26T13:01:57.379Z,101332.66
2022-10-26T13:05:07.783Z,101278.22
2022-10-26T13:07:40.637Z,101388.31
2022-10-26T13:10:21.625Z,101228.81
2022-10-26T13:12:54.210Z,101392.72
2022-10-26T13:15:24.871Z,101391.19
2022-10-26T13:18:09.017Z,101331.47
2022-10-26T13:20:53.299Z,101207.63
2022-10-26T13:23:28.401Z,101118.63
2022-10-26T13:26:06.094Z,101339.22
2022-10-26T13:28:45.725Z,101216.91
2022-10-26T13:31:34.528Z,101356.66
2022-10-26T13:34:06.862Z,101317.31
2022-10-26T13:36:42.087Z,101404.59
2022-10-26T13:39:20.459Z,101366.00
2022-10-26T13:41:52.893Z,101404.97
2022-10-26T13:44:27.565Z,101075.75
2022-10-26T13:47:00.792Z,101428.63
2022-10-26T13:49:35.255Z,101325.72
2022-10-26T13:52:06.178Z,101325.81
2022-10-26T13:54:43.443Z,101438.25
2022-10-26T13:57:18.736Z,101402.28
2022-10-26T13:59:48.172Z,101421.31
2022-10-26T14:02:20.075Z,101325.63
2022-10-26T14:04:52.708Z,101313.56
2022-10-26T14:07:25.007Z,101440.56
2022-10-26T14:09:58.174Z,101462.72
2022-10-26T14:12:29.410Z,101353.53
2022-10-26T14:15:04.543Z,101402.03
2022-10-26T14:17:36.324Z,101457.47
2022-10-26T14:20:18.673Z,101460.03
2022-10-26T14:22:47.650Z,101463.22
2022-10-26T14:25:31.000Z,101474.28
2022-10-26T14:28:22.191Z,101478.50
2022-10-26T14:30:51.594Z,101384.50
2022-10-26T14:33:22.701Z,101475.34
2022-10-26T14:35:52.485Z,101485.28
2022-10-26T14:38:26.632Z,101470.69
2022-10-26T14:40:58.797Z,101452.00
2022-10-26T14:43:28.837Z,101493.47
2022-10-26T14:46:00.230Z,101491.97
2022-10-26T14:48:33.851Z,101383.50
2022-10-26T14:51:05.224Z,101492.84
2022-10-26T14:53:38.744Z,101416.25
2022-10-26T14:56:22.521Z,101423.97
2022-10-26T14:58:52.407Z,101515.25
2022-10-26T15:01:35.754Z,101494.03
2022-10-26T15:04:08.284Z,101500.69
2022-10-26T15:06:45.111Z,101446.94
2022-10-26T15:09:33.360Z,101470.13
2022-10-26T15:12:05.473Z,101434.50
2022-10-26T15:14:35.853Z,101499.41
2022-10-26T15:17:07.278Z,101414.78
2022-10-26T15:19:37.366Z,101513.97
2022-10-26T15:22:06.321Z,101474.66
2022-10-26T15:24:39.745Z,101518.41
2022-10-26T15:27:17.724Z,101525.97
2022-10-26T15:29:48.532Z,101531.88
2022-10-26T15:32:28.334Z,101532.75
2022-10-26T15:35:16.943Z,101503.63
2022-10-26T15:37:46.366Z,101436.53
2022-10-26T15:40:15.992Z,101536.66
2022-10-26T15:42:50.383Z,101541.59
2022-10-26T15:45:22.364Z,101534.53
2022-10-26T15:47:53.327Z,101530.94
2022-10-26T15:50:24.321Z,101550.03
2022-10-26T15:53:02.167Z,101551.94
2022-10-26T15:55:32.230Z,101527.34
2022-10-26T15:58:02.330Z,101554.88
2022-10-26T16:00:33.666Z,101478.75
2022-10-26T16:03:04.149Z,101527.81
2022-10-26T16:05:33.024Z,101550.97
2022-10-26T16:08:02.903Z,101572.38
2022-10-26T16:10:31.717Z,101125.06
2022-10-26T16:13:00.412Z,101575.22
2022-10-26T16:15:33.218Z,101547.38
2022-10-26T16:18:01.970Z,101579.50
2022-10-26T16:20:32.991Z,101583.00
2022-10-26T16:23:06.700Z,101562.59
2022-10-26T16:25:43.304Z,101591.59
2022-10-26T16:28:14.007Z,101593.41
2022-10-26T16:30:44.917Z,101531.44
2022-10-26T16:33:14.215Z,101600.25
2022-10-26T16:35:43.063Z,101561.81
2022-10-26T16:38:15.269Z,101606.13
2022-10-26T16:40:45.184Z,101609.00
2022-10-26T16:43:14.282Z,101391.47
2022-10-26T16:45:45.678Z,101642.97
2022-10-26T16:48:16.177Z,101621.94
2022-10-26T16:50:44.835Z,101626.00
2022-10-26T16:53:14.023Z,101619.78
2022-10-26T16:55:45.795Z,101542.91
2022-10-26T16:58:15.526Z,101616.50
2022-10-26T17:00:46.059Z,101476.75
2022-10-26T17:03:14.983Z,101657.25
2022-10-26T17:05:43.783Z,101627.63
2022-10-26T17:08:12.886Z,101637.03
2022-10-26T17:10:42.151Z,101637.84
2022-10-26T17:13:10.961Z,101249.69
2022-10-26T17:15:44.476Z,101644.75
2022-10-26T17:18:15.701Z,101647.75
2022-10-26T17:20:50.949Z,101606.66
2022-10-26T17:23:19.822Z,101629.00
2022-10-26T17:25:48.975Z,101568.22
2022-10-26T17:28:21.127Z,101657.34
2022-10-26T17:30:50.259Z,101610.19
2022-10-26T17:33:20.937Z,101666.03
2022-10-26T17:35:54.465Z,101669.66
2022-10-26T17:38:23.211Z,101687.06
2022-10-26T17:40:54.790Z,101679.72
2022-10-26T17:43:25.909Z,101680.50
2022-10-26T17:45:59.668Z,101682.94
2022-10-26T17:48:31.086Z,101531.34
2022-10-26T17:51:01.407Z,101696.28
2022-10-26T17:53:31.219Z,101708.66
2022-10-26T17:56:03.842Z,101693.84
2022-10-26T17:58:33.784Z,101574.56
2022-10-26T18:01:04.459Z,101482.22
2022-10-26T18:03:37.414Z,101713.78
2022-10-26T18:06:08.315Z,101731.69
2022-10-26T18:08:39.140Z,101729.97
2022-10-26T18:11:14.455Z,101544.75
2022-10-26T18:13:43.564Z,101385.22
2022-10-26T18:16:13.961Z,101743.41
2022-10-26T18:18:50.261Z,101726.78
2022-10-26T18:21:20.680Z,101757.19
2022-10-26T18:23:49.572Z,101749.84
2022-10-26T18:26:23.220Z,101709.25
2022-10-26T18:28:52.109Z,101693.16
2022-10-26T18:31:23.227Z,101760.13
2022-10-26T18:33:57.473Z,101764.47
2022-10-26T18:36:30.284Z,101563.81
2022-10-26T18:38:59.812Z,101771.91
2022-10-26T18:41:29.231Z,101493.06
2022-10-26T18:43:59.949Z,101773.97
2022-10-26T18:46:30.815Z,101776.19
2022-10-26T18:49:01.894Z,101664.19
2022-10-26T18:51:34.575Z,101781.69
2022-10-26T18:54:04.141Z,101738.63
2022-10-26T18:56:35.025Z,101796.34
2022-10-26T18:59:03.970Z,101798.28
2022-10-26T19:01:35.136Z,101781.78
2022-10-26T19:04:07.042Z,101799.75
2022-10-26T19:06:37.845Z,101815.66
2022-10-26T19:09:08.087Z,101641.19
2022-10-26T19:11:38.304Z,101817.63
2022-10-26T19:14:08.158Z,101513.56
2022-10-26T19:16:45.841Z,101838.66
2022-10-26T19:19:57.805Z,101618.91
2022-10-26T19:22:49.929Z,101607.97
2022-10-26T19:25:37.564Z,101442.03
2022-10-26T19:28:06.555Z,101487.81
2022-10-26T19:30:39.916Z,101826.06
2022-10-26T19:33:08.617Z,101505.59
2022-10-26T19:35:38.717Z,101825.44
2022-10-26T19:38:07.398Z,101862.66
2022-10-26T19:40:36.411Z,101775.06
2022-10-26T19:43:07.737Z,101841.31
2022-10-26T19:45:37.244Z,101852.03
2022-10-26T19:48:06.749Z,101847.66
2022-10-26T19:50:35.577Z,101406.19
2022-10-26T19:53:06.447Z,101832.63
2022-10-26T19:55:35.362Z,101831.81
2022-10-26T19:58:04.148Z,101865.03
2022-10-26T20:00:36.590Z,101819.41
2022-10-26T20:03:06.394Z,101879.72
2022-10-26T20:05:35.082Z,101828.34
2022-10-26T20:08:07.640Z,101855.94
2022-10-26T20:10:37.746Z,101891.31
2022-10-26T20:13:07.186Z,101771.34
2022-10-26T20:15:35.983Z,101841.28
2022-10-26T20:18:05.720Z,101857.88
2022-10-26T20:20:38.146Z,101861.84
2022-10-26T20:23:10.051Z,101600.38
2022-10-26T20:25:40.579Z,101888.53
2022-10-26T20:28:10.031Z,101835.84
2022-10-26T20:30:39.723Z,101877.09
2022-10-26T20:33:08.967Z,101885.66
2022-10-26T20:35:39.461Z,101880.53
2022-10-26T20:38:18.039Z,101892.94
2022-10-26T20:40:58.220Z,101891.56
2022-10-26T20:43:28.824Z,101826.00
2022-10-26T20:46:00.422Z,101908.50
2022-10-26T20:48:33.037Z,101870.56
2022-10-26T20:51:06.100Z,101847.66
2022-10-26T20:53:43.759Z,101887.84
2022-10-26T20:56:21.412Z,101887.56
2022-10-26T20:58:55.956Z,101895.81
2022-10-26T21:01:27.886Z,101769.31
2022-10-26T21:03:58.294Z,101905.44
2022-10-26T21:06:28.116Z,101900.66
2022-10-26T21:08:59.001Z,101550.72
2022-10-26T21:11:27.770Z,101985.31
2022-10-26T21:13:57.398Z,101910.50
2022-10-26T21:16:26.797Z,101918.38
2022-10-26T21:18:56.361Z,101892.84
2022-10-26T21:21:25.761Z,101910.06
2022-10-26T21:23:55.856Z,101909.38
2022-10-26T21:26:28.556Z,101906.59
2022-10-26T21:28:57.948Z,101544.69
2022-10-26T21:31:29.336Z,101906.63
2022-10-26T21:33:58.174Z,101676.38
2022-10-26T21:36:29.294Z,101904.69
2022-10-26T21:38:58.560Z,101890.03
2022-10-26T21:41:32.224Z,101871.75
2022-10-26T21:44:09.209Z,101907.75
2022-10-26T21:46:39.325Z,101903.22
2022-10-26T21:49:08.827Z,101900.38
2022-10-26T21:51:38.078Z,101773.75
2022-10-26T21:54:09.337Z,101908.31
2022-10-26T21:56:39.699Z,101628.72
2022-10-26T21:59:09.300Z,101812.16
2022-10-26T22:01:38.147Z,101912.09
2022-10-26T22:04:07.108Z,101773.66
2022-10-26T22:06:38.846Z,101683.50
2022-10-26T22:09:08.300Z,101912.97
2022-10-26T22:11:41.084Z,101932.19
2022-10-26T22:14:10.098Z,101911.09
2022-10-26T22:16:38.957Z,101910.78
2022-10-26T22:19:09.106Z,101495.81
2022-10-26T22:21:39.913Z,101907.72
2022-10-26T22:24:09.991Z,101912.94
2022-10-26T22:26:40.503Z,101910.19
2022-10-26T22:29:10.544Z,101921.69
2022-10-26T22:31:41.528Z,101864.81
2022-10-26T22:34:16.601Z,101917.81
2022-10-26T22:36:46.196Z,101823.16
2022-10-26T22:39:15.450Z,101903.22
2022-10-26T22:41:46.238Z,101648.44
2022-10-26T22:44:14.959Z,101870.75
2022-10-26T22:46:44.079Z,101905.63
2022-10-26T22:49:14.274Z,101585.16
2022-10-26T22:51:43.172Z,101746.91
2022-10-26T22:54:13.687Z,101480.66
2022-10-26T22:56:42.429Z,101898.78
2022-10-26T22:59:12.601Z,101904.41
2022-10-26T23:01:42.009Z,101909.97
2022-10-26T23:04:12.926Z,101912.91
2022-10-26T23:06:42.229Z,101844.88
2022-10-26T23:09:11.803Z,101836.59
2022-10-26T23:11:43.061Z,101844.13
2022-10-26T23:14:14.072Z,101913.06
2022-10-26T23:16:43.565Z,101512.09
2022-10-26T23:19:14.036Z,101915.69
2022-10-26T23:21:45.639Z,101920.84
2022-10-26T23:24:14.704Z,101930.44
2022-10-26T23:26:47.737Z,101886.88
2022-10-26T23:29:18.108Z,101812.72
2022-10-26T23:31:47.398Z,101992.09
2022-10-26T23:34:17.390Z,101932.34
2022-10-26T23:36:48.137Z,101933.38
2022-10-26T23:39:17.357Z,101929.72
2022-10-26T23:41:46.565Z,101758.91
2022-10-26T23:44:19.072Z,101869.88
2022-10-26T23:46:49.082Z,101972.78
2022-10-26T23:49:17.944Z,101760.97
2022-10-26T23:51:49.028Z,101829.16
2022-10-26T23:54:17.843Z,101727.09
2022-10-26T23:56:47.102Z,101933.75
2022-10-26T23:59:16.261Z,101937.00
